首页
METAR-TAF:

METAR-TAF

机场 :

Baker City, 俄勒冈州, 美国

纬度: 44-50-14N, 经度: 117-48-33W, 海拔: 1028米

当前天气观测

该预报发布于25分钟前的02:53 UTC
风速10节,风向北转西北
温度 17°C
湿度 52%
气压 1016 hPa
能見度: 16.1公里
天空无云

METAR: KBKE 010253Z AUTO 33010KT 10SM CLR 17/07 A2999 RMK AO2 SLP140 T01670072 53003

时间: 20:18 (03:18 UTC)

预报

该预报发布于3小时和57分钟前的23:21 UTC
预报有效从01日的 00点(UTC)到 01日的 24点(UTC)
风速6节,风向多变
能見度: 10公里
散云层高于9000英尺
从 01日的 0500点(UTC)
风速3节,风向多变
能見度: 10公里
散云层高于20000英尺
从 01日的 1200点(UTC)
风速3节,风向多变
能見度: 10公里
散云层高于5000英尺
阴天层高于8000英尺
附近有阵雨
从 01日的 1800点(UTC)
风速8节,风向北转西北
能見度: 9.7公里
阴天层高于4000英尺
小阵雨

TAF: KBKE 312321Z 0100/0124 VRB06KT P6SM SCT090 FM010500 VRB03KT P6SM SCT200 FM011200 VRB03KT P6SM VCSH SCT050 OVC080 FM011800 33008KT 6SM -SHRA OVC040

超过4000个机场的气象观测和天气预报(METAR&TAF报告)。

可查询的气象台以黄色和红色小点在地图上表示。

将鼠标移到小点上方,可查看气象台名称。

然后点击查看天气观测和预报。

如需切换地图:点击带黑十字的绿色按钮放大地图;点击带横线的绿色按钮缩小地图;或者点击绿色箭头查看邻近地区的地图。


METAR-TAF: